sensor_id;sensor_type;location;lat;lon;timestamp;pressure;altitude;pressure_sealevel;temperature;humidity
18790;BME280;9523;42.650;23.386;2023-05-08T00:02:20;94776.09;;;12.64;100.00
18790;BME280;9523;42.650;23.386;2023-05-08T00:04:48;94784.50;;;12.66;100.00
18790;BME280;9523;42.650;23.386;2023-05-08T00:07:15;94786.88;;;12.68;100.00
18790;BME280;9523;42.650;23.386;2023-05-08T00:09:42;94782.16;;;12.65;100.00
18790;BME280;9523;42.650;23.386;2023-05-08T00:12:08;94725.25;;;12.27;100.00
18790;BME280;9523;42.650;23.386;2023-05-08T00:14:35;94778.34;;;12.57;100.00
18790;BME280;9523;42.650;23.386;2023-05-08T00:17:02;94780.03;;;12.53;100.00
18790;BME280;9523;42.650;23.386;2023-05-08T00:19:29;94787.47;;;12.51;100.00
18790;BME280;9523;42.650;23.386;2023-05-08T00:21:57;94791.41;;;12.54;100.00
18790;BME280;9523;42.650;23.386;2023-05-08T00:24:24;94789.50;;;12.54;100.00
18790;BME280;9523;42.650;23.386;2023-05-08T00:26:51;94786.78;;;12.59;100.00
18790;BME280;9523;42.650;23.386;2023-05-08T00:29:17;94790.00;;;12.56;100.00
18790;BME280;9523;42.650;23.386;2023-05-08T00:31:44;94795.13;;;12.53;100.00
18790;BME280;9523;42.650;23.386;2023-05-08T00:34:11;94791.59;;;12.57;100.00
18790;BME280;9523;42.650;23.386;2023-05-08T00:36:38;94801.59;;;12.60;100.00
18790;BME280;9523;42.650;23.386;2023-05-08T00:39:06;94797.34;;;12.59;100.00
18790;BME280;9523;42.650;23.386;2023-05-08T00:41:33;94796.88;;;12.57;100.00
18790;BME280;9523;42.650;23.386;2023-05-08T00:44:00;94796.69;;;12.54;100.00
18790;BME280;9523;42.650;23.386;2023-05-08T00:46:27;94793.53;;;12.52;100.00
18790;BME280;9523;42.650;23.386;2023-05-08T00:48:53;94792.38;;;12.44;100.00
18790;BME280;9523;42.650;23.386;2023-05-08T00:51:20;94792.97;;;12.41;100.00
18790;BME280;9523;42.650;23.386;2023-05-08T00:53:48;94798.25;;;12.41;100.00
18790;BME280;9523;42.650;23.386;2023-05-08T00:56:17;94750.34;;;12.02;100.00
18790;BME280;9523;42.650;23.386;2023-05-08T00:58:46;94796.56;;;12.32;100.00
18790;BME280;9523;42.650;23.386;2023-05-08T01:01:14;94785.09;;;12.22;100.00
18790;BME280;9523;42.650;23.386;2023-05-08T01:03:42;94794.31;;;12.25;100.00
18790;BME280;9523;42.650;23.386;2023-05-08T01:06:09;94797.66;;;12.17;100.00
18790;BME280;9523;42.650;23.386;2023-05-08T01:08:36;94797.56;;;12.22;100.00
18790;BME280;9523;42.650;23.386;2023-05-08T01:11:10;94806.56;;;12.21;100.00
18790;BME280;9523;42.650;23.386;2023-05-08T01:13:53;94801.97;;;12.13;100.00
18790;BME280;9523;42.650;23.386;2023-05-08T01:16:33;94805.66;;;12.12;100.00
18790;BME280;9523;42.650;23.386;2023-05-08T01:19:12;94762.53;;;11.84;100.00
18790;BME280;9523;42.650;23.386;2023-05-08T01:21:50;94805.94;;;12.10;100.00
18790;BME280;9523;42.650;23.386;2023-05-08T01:24:59;94813.59;;;12.12;100.00
18790;BME280;9523;42.650;23.386;2023-05-08T01:28:00;94816.25;;;12.12;100.00
18790;BME280;9523;42.650;23.386;2023-05-08T01:33:32;94793.13;;;12.04;100.00
18790;BME280;9523;42.650;23.386;2023-05-08T01:36:13;94803.41;;;12.05;100.00
18790;BME280;9523;42.650;23.386;2023-05-08T01:38:52;94797.44;;;12.00;100.00
18790;BME280;9523;42.650;23.386;2023-05-08T01:41:24;94801.44;;;11.97;100.00
18790;BME280;9523;42.650;23.386;2023-05-08T01:43:57;94776.53;;;11.85;100.00
18790;BME280;9523;42.650;23.386;2023-05-08T01:46:27;94794.69;;;12.05;100.00
18790;BME280;9523;42.650;23.386;2023-05-08T01:49:04;94798.13;;;12.05;100.00
18790;BME280;9523;42.650;23.386;2023-05-08T01:51:36;94791.75;;;12.06;100.00
18790;BME280;9523;42.650;23.386;2023-05-08T01:54:07;94795.28;;;12.02;100.00
18790;BME280;9523;42.650;23.386;2023-05-08T01:56:35;94787.72;;;11.95;100.00
18790;BME280;9523;42.650;23.386;2023-05-08T01:59:04;94790.34;;;11.95;100.00
18790;BME280;9523;42.650;23.386;2023-05-08T02:01:33;94790.34;;;11.95;100.00
18790;BME280;9523;42.650;23.386;2023-05-08T02:04:02;94785.47;;;11.89;100.00
18790;BME280;9523;42.650;23.386;2023-05-08T02:06:32;94787.59;;;11.87;100.00
18790;BME280;9523;42.650;23.386;2023-05-08T02:09:00;94787.53;;;11.92;100.00
18790;BME280;9523;42.650;23.386;2023-05-08T02:11:28;94791.81;;;11.88;100.00
18790;BME280;9523;42.650;23.386;2023-05-08T02:13:58;94797.19;;;11.83;100.00
18790;BME280;9523;42.650;23.386;2023-05-08T02:16:27;94763.06;;;11.67;100.00
18790;BME280;9523;42.650;23.386;2023-05-08T02:18:57;94790.16;;;11.92;100.00
18790;BME280;9523;42.650;23.386;2023-05-08T02:21:27;94793.72;;;12.01;100.00
18790;BME280;9523;42.650;23.386;2023-05-08T02:23:56;94801.44;;;11.97;100.00
18790;BME280;9523;42.650;23.386;2023-05-08T02:26:25;94800.56;;;12.02;100.00
18790;BME280;9523;42.650;23.386;2023-05-08T02:28:54;94801.25;;;12.07;100.00
18790;BME280;9523;42.650;23.386;2023-05-08T02:31:21;94795.66;;;11.95;100.00
18790;BME280;9523;42.650;23.386;2023-05-08T02:33:49;94801.53;;;11.92;100.00
18790;BME280;9523;42.650;23.386;2023-05-08T02:36:17;94804.44;;;11.91;100.00
18790;BME280;9523;42.650;23.386;2023-05-08T02:38:49;94795.28;;;12.02;100.00
18790;BME280;9523;42.650;23.386;2023-05-08T02:41:18;94792.72;;;11.97;100.00
18790;BME280;9523;42.650;23.386;2023-05-08T02:43:46;94801.25;;;11.94;100.00
18790;BME280;9523;42.650;23.386;2023-05-08T02:46:15;94801.66;;;12.01;100.00
18790;BME280;9523;42.650;23.386;2023-05-08T02:48:52;94804.69;;;12.08;100.00
18790;BME280;9523;42.650;23.386;2023-05-08T02:51:24;94801.97;;;12.13;100.00
18790;BME280;9523;42.650;23.386;2023-05-08T02:53:57;94803.31;;;12.10;100.00
18790;BME280;9523;42.650;23.386;2023-05-08T02:56:31;94807.25;;;12.13;100.00
18790;BME280;9523;42.650;23.386;2023-05-08T02:59:08;94807.59;;;12.06;100.00
18790;BME280;9523;42.650;23.386;2023-05-08T03:01:42;94811.56;;;12.09;100.00
18790;BME280;9523;42.650;23.386;2023-05-08T03:04:11;94806.47;;;12.12;100.00
18790;BME280;9523;42.650;23.386;2023-05-08T03:06:45;94807.91;;;12.18;100.00
18790;BME280;9523;42.650;23.386;2023-05-08T03:09:18;94806.75;;;12.11;100.00
18790;BME280;9523;42.650;23.386;2023-05-08T03:11:48;94802.56;;;12.10;100.00
18790;BME280;9523;42.650;23.386;2023-05-08T03:14:19;94804.69;;;12.08;100.00
18790;BME280;9523;42.650;23.386;2023-05-08T03:16:48;94805.88;;;12.02;100.00
18790;BME280;9523;42.650;23.386;2023-05-08T03:19:21;94809.56;;;12.01;100.00
18790;BME280;9523;42.650;23.386;2023-05-08T03:21:50;94819.38;;;12.00;100.00
18790;BME280;9523;42.650;23.386;2023-05-08T03:24:21;94808.19;;;12.03;100.00
18790;BME280;9523;42.650;23.386;2023-05-08T03:26:49;94809.47;;;11.92;100.00
18790;BME280;9523;42.650;23.386;2023-05-08T03:29:17;94819.84;;;11.89;100.00
18790;BME280;9523;42.650;23.386;2023-05-08T03:31:46;94822.47;;;11.89;100.00
18790;BME280;9523;42.650;23.386;2023-05-08T03:34:13;94819.63;;;11.85;100.00
18790;BME280;9523;42.650;23.386;2023-05-08T03:36:41;94826.78;;;11.85;100.00
18790;BME280;9523;42.650;23.386;2023-05-08T03:39:08;94828.91;;;11.83;100.00
18790;BME280;9523;42.650;23.386;2023-05-08T03:41:36;94817.47;;;11.87;100.00
18790;BME280;9523;42.650;23.386;2023-05-08T03:44:04;94826.38;;;11.91;100.00
18790;BME280;9523;42.650;23.386;2023-05-08T03:46:32;94819.25;;;11.92;100.00
18790;BME280;9523;42.650;23.386;2023-05-08T03:49:03;94815.44;;;11.98;100.00
18790;BME280;9523;42.650;23.386;2023-05-08T03:51:30;94803.47;;;11.87;100.00
18790;BME280;9523;42.650;23.386;2023-05-08T03:53:57;94829.44;;;11.98;100.00
18790;BME280;9523;42.650;23.386;2023-05-08T03:56:24;94824.38;;;12.02;100.00
18790;BME280;9523;42.650;23.386;2023-05-08T03:58:56;94825.72;;;11.99;100.00
18790;BME280;9523;42.650;23.386;2023-05-08T04:01:31;94822.81;;;12.01;100.00
18790;BME280;9523;42.650;23.386;2023-05-08T04:04:07;94822.41;;;12.07;100.00
18790;BME280;9523;42.650;23.386;2023-05-08T04:06:39;94833.38;;;12.14;100.00
18790;BME280;9523;42.650;23.386;2023-05-08T04:09:14;94825.97;;;12.16;100.00
18790;BME280;9523;42.650;23.386;2023-05-08T04:11:48;94835.63;;;12.07;100.00
18790;BME280;9523;42.650;23.386;2023-05-08T04:14:20;94839.84;;;12.08;100.00
18790;BME280;9523;42.650;23.386;2023-05-08T04:16:51;94841.72;;;12.08;100.00
18790;BME280;9523;42.650;23.386;2023-05-08T04:19:22;94846.28;;;12.02;100.00
18790;BME280;9523;42.650;23.386;2023-05-08T04:21:50;94845.09;;;11.95;100.00
18790;BME280;9523;42.650;23.386;2023-05-08T04:24:21;94846.59;;;12.01;100.00
18790;BME280;9523;42.650;23.386;2023-05-08T04:26:49;94842.88;;;12.02;100.00
18790;BME280;9523;42.650;23.386;2023-05-08T04:29:19;94848.56;;;12.09;100.00
18790;BME280;9523;42.650;23.386;2023-05-08T04:31:45;94822.09;;;11.95;100.00
18790;BME280;9523;42.650;23.386;2023-05-08T04:34:16;94848.97;;;12.16;100.00
18790;BME280;9523;42.650;23.386;2023-05-08T04:36:43;94847.53;;;12.23;100.00
18790;BME280;9523;42.650;23.386;2023-05-08T04:39:12;94843.22;;;12.28;100.00
18790;BME280;9523;42.650;23.386;2023-05-08T04:41:39;94844.97;;;12.32;100.00
18790;BME280;9523;42.650;23.386;2023-05-08T04:44:06;94850.66;;;12.39;100.00
18790;BME280;9523;42.650;23.386;2023-05-08T04:46:35;94836.84;;;12.42;100.00
18790;BME280;9523;42.650;23.386;2023-05-08T04:49:03;94846.19;;;12.53;100.00
18790;BME280;9523;42.650;23.386;2023-05-08T04:51:30;94838.25;;;12.53;100.00
18790;BME280;9523;42.650;23.386;2023-05-08T04:53:59;94837.06;;;12.59;100.00
18790;BME280;9523;42.650;23.386;2023-05-08T04:56:26;94835.78;;;12.70;100.00
18790;BME280;9523;42.650;23.386;2023-05-08T04:58:53;94833.53;;;12.78;100.00
18790;BME280;9523;42.650;23.386;2023-05-08T05:01:20;94834.72;;;12.85;100.00
18790;BME280;9523;42.650;23.386;2023-05-08T05:03:48;94833.31;;;13.01;100.00
18790;BME280;9523;42.650;23.386;2023-05-08T05:06:15;94823.19;;;13.03;100.00
18790;BME280;9523;42.650;23.386;2023-05-08T05:08:41;94831.53;;;13.10;100.00
18790;BME280;9523;42.650;23.386;2023-05-08T05:11:08;94832.41;;;13.06;100.00
18790;BME280;9523;42.650;23.386;2023-05-08T05:13:35;94814.66;;;13.06;100.00
18790;BME280;9523;42.650;23.386;2023-05-08T05:16:02;94824.56;;;13.14;100.00
18790;BME280;9523;42.650;23.386;2023-05-08T05:18:29;94822.50;;;13.25;100.00
18790;BME280;9523;42.650;23.386;2023-05-08T05:20:58;94828.63;;;13.34;100.00
18790;BME280;9523;42.650;23.386;2023-05-08T05:23:24;94824.22;;;13.30;100.00
18790;BME280;9523;42.650;23.386;2023-05-08T05:25:51;94824.13;;;13.35;100.00
18790;BME280;9523;42.650;23.386;2023-05-08T05:28:18;94821.66;;;13.38;100.00
18790;BME280;9523;42.650;23.386;2023-05-08T05:30:46;94817.50;;;13.46;100.00
18790;BME280;9523;42.650;23.386;2023-05-08T05:33:13;94821.06;;;13.41;100.00
18790;BME280;9523;42.650;23.386;2023-05-08T05:35:39;94820.47;;;13.44;100.00
18790;BME280;9523;42.650;23.386;2023-05-08T05:38:08;94827.59;;;13.57;100.00
18790;BME280;9523;42.650;23.386;2023-05-08T05:40:34;94816.03;;;13.53;100.00
18790;BME280;9523;42.650;23.386;2023-05-08T05:43:01;94823.22;;;13.61;100.00
18790;BME280;9523;42.650;23.386;2023-05-08T05:45:28;94818.00;;;13.70;100.00
18790;BME280;9523;42.650;23.386;2023-05-08T05:47:55;94830.72;;;13.82;100.00
18790;BME280;9523;42.650;23.386;2023-05-08T05:50:22;94828.56;;;13.84;100.00
18790;BME280;9523;42.650;23.386;2023-05-08T05:52:49;94815.19;;;13.89;100.00
18790;BME280;9523;42.650;23.386;2023-05-08T05:55:17;94828.66;;;14.01;100.00
18790;BME280;9523;42.650;23.386;2023-05-08T05:57:47;94822.19;;;13.93;100.00
18790;BME280;9523;42.650;23.386;2023-05-08T06:00:15;94825.28;;;14.09;100.00
18790;BME280;9523;42.650;23.386;2023-05-08T06:02:42;94807.78;;;14.08;100.00
18790;BME280;9523;42.650;23.386;2023-05-08T06:05:09;94821.13;;;14.25;100.00
18790;BME280;9523;42.650;23.386;2023-05-08T06:07:36;94815.06;;;14.33;100.00
18790;BME280;9523;42.650;23.386;2023-05-08T06:10:05;94807.34;;;14.37;100.00
18790;BME280;9523;42.650;23.386;2023-05-08T06:12:33;94811.69;;;14.41;100.00
18790;BME280;9523;42.650;23.386;2023-05-08T06:15:00;94803.19;;;14.53;99.19
18790;BME280;9523;42.650;23.386;2023-05-08T06:17:27;94812.09;;;14.66;98.78
18790;BME280;9523;42.650;23.386;2023-05-08T06:19:54;94805.72;;;14.67;96.71
18790;BME280;9523;42.650;23.386;2023-05-08T06:22:21;94809.97;;;14.76;96.90
18790;BME280;9523;42.650;23.386;2023-05-08T06:24:49;94803.91;;;14.84;94.40
18790;BME280;9523;42.650;23.386;2023-05-08T06:27:17;94792.94;;;14.86;91.96
18790;BME280;9523;42.650;23.386;2023-05-08T06:29:46;94805.00;;;15.09;89.88
18790;BME280;9523;42.650;23.386;2023-05-08T06:32:12;94803.16;;;15.18;87.27
18790;BME280;9523;42.650;23.386;2023-05-08T06:34:39;94808.66;;;15.39;80.14
18790;BME280;9523;42.650;23.386;2023-05-08T06:37:06;94803.66;;;15.55;80.58
18790;BME280;9523;42.650;23.386;2023-05-08T06:39:33;94801.31;;;15.79;81.40
18790;BME280;9523;42.650;23.386;2023-05-08T06:42:00;94806.56;;;16.05;80.94
18790;BME280;9523;42.650;23.386;2023-05-08T06:44:26;94808.44;;;16.13;76.77
18790;BME280;9523;42.650;23.386;2023-05-08T06:46:55;94806.50;;;16.30;77.94
18790;BME280;9523;42.650;23.386;2023-05-08T06:49:21;94800.22;;;16.43;78.40
18790;BME280;9523;42.650;23.386;2023-05-08T06:51:48;94805.06;;;16.41;78.18
18790;BME280;9523;42.650;23.386;2023-05-08T06:54:15;94809.25;;;16.60;78.77
18790;BME280;9523;42.650;23.386;2023-05-08T06:56:43;94796.63;;;16.77;78.34
18790;BME280;9523;42.650;23.386;2023-05-08T06:59:10;94806.69;;;17.01;77.33
18790;BME280;9523;42.650;23.386;2023-05-08T07:01:37;94799.84;;;17.12;75.83
18790;BME280;9523;42.650;23.386;2023-05-08T07:04:05;94811.84;;;17.27;75.25
18790;BME280;9523;42.650;23.386;2023-05-08T07:06:32;94748.88;;;17.14;74.66
18790;BME280;9523;42.650;23.386;2023-05-08T07:08:59;94816.41;;;17.26;72.76
18790;BME280;9523;42.650;23.386;2023-05-08T07:11:26;94811.22;;;17.51;72.56
18790;BME280;9523;42.650;23.386;2023-05-08T07:13:53;94817.84;;;17.65;72.68
18790;BME280;9523;42.650;23.386;2023-05-08T07:16:19;94814.88;;;17.67;71.79
18790;BME280;9523;42.650;23.386;2023-05-08T07:18:46;94811.88;;;17.68;70.30
18790;BME280;9523;42.650;23.386;2023-05-08T07:21:17;94818.81;;;17.81;68.85
18790;BME280;9523;42.650;23.386;2023-05-08T07:23:45;94818.63;;;17.87;69.04
18790;BME280;9523;42.650;23.386;2023-05-08T07:26:16;94822.97;;;17.91;66.96
18790;BME280;9523;42.650;23.386;2023-05-08T07:28:42;94811.09;;;18.01;66.71
18790;BME280;9523;42.650;23.386;2023-05-08T07:31:09;94808.38;;;18.21;67.23
18790;BME280;9523;42.650;23.386;2023-05-08T07:33:37;94821.06;;;18.24;66.68
18790;BME280;9523;42.650;23.386;2023-05-08T07:36:04;94811.66;;;18.39;63.63
18790;BME280;9523;42.650;23.386;2023-05-08T07:38:33;94812.47;;;18.52;63.32
18790;BME280;9523;42.650;23.386;2023-05-08T07:41:01;94814.91;;;18.57;62.15
18790;BME280;9523;42.650;23.386;2023-05-08T07:43:32;94813.81;;;18.70;61.39
18790;BME280;9523;42.650;23.386;2023-05-08T07:45:59;94812.94;;;18.78;60.37
18790;BME280;9523;42.650;23.386;2023-05-08T07:48:26;94819.38;;;18.77;60.23
18790;BME280;9523;42.650;23.386;2023-05-08T07:50:53;94827.84;;;19.03;59.16
18790;BME280;9523;42.650;23.386;2023-05-08T07:53:20;94825.84;;;19.12;58.44
18790;BME280;9523;42.650;23.386;2023-05-08T07:55:48;94823.94;;;19.25;57.43
18790;BME280;9523;42.650;23.386;2023-05-08T07:58:15;94825.03;;;19.24;57.92
18790;BME280;9523;42.650;23.386;2023-05-08T08:00:42;94821.25;;;19.37;59.09
18790;BME280;9523;42.650;23.386;2023-05-08T08:03:09;94821.34;;;19.53;58.36
18790;BME280;9523;42.650;23.386;2023-05-08T08:05:36;94822.88;;;19.66;57.21
18790;BME280;9523;42.650;23.386;2023-05-08T08:08:04;94829.31;;;19.77;56.71
18790;BME280;9523;42.650;23.386;2023-05-08T08:10:31;94822.56;;;19.83;56.47
18790;BME280;9523;42.650;23.386;2023-05-08T08:13:00;94825.66;;;19.97;56.49
18790;BME280;9523;42.650;23.386;2023-05-08T08:15:27;94818.16;;;20.18;55.00
18790;BME280;9523;42.650;23.386;2023-05-08T08:17:54;94797.06;;;20.01;53.52
18790;BME280;9523;42.650;23.386;2023-05-08T08:20:21;94822.41;;;20.20;52.81
18790;BME280;9523;42.650;23.386;2023-05-08T08:22:48;94825.16;;;19.80;52.66
18790;BME280;9523;42.650;23.386;2023-05-08T08:25:15;94823.22;;;19.92;52.79
18790;BME280;9523;42.650;23.386;2023-05-08T08:27:42;94827.75;;;20.32;52.79
18790;BME280;9523;42.650;23.386;2023-05-08T08:30:10;94828.69;;;20.39;51.39
18790;BME280;9523;42.650;23.386;2023-05-08T08:32:37;94810.66;;;20.68;50.88
18790;BME280;9523;42.650;23.386;2023-05-08T08:35:05;94806.56;;;21.05;52.07
18790;BME280;9523;42.650;23.386;2023-05-08T08:37:31;94804.88;;;21.32;51.43
18790;BME280;9523;42.650;23.386;2023-05-08T08:39:59;94804.91;;;21.51;50.13
18790;BME280;9523;42.650;23.386;2023-05-08T08:42:26;94808.03;;;21.72;49.26
18790;BME280;9523;42.650;23.386;2023-05-08T08:44:54;94809.63;;;22.12;48.91
18790;BME280;9523;42.650;23.386;2023-05-08T08:47:26;94800.25;;;22.06;48.37
18790;BME280;9523;42.650;23.386;2023-05-08T08:49:54;94796.09;;;21.89;48.37
18790;BME280;9523;42.650;23.386;2023-05-08T08:52:25;94803.38;;;21.88;48.59
18790;BME280;9523;42.650;23.386;2023-05-08T08:54:59;94794.34;;;21.77;49.27
18790;BME280;9523;42.650;23.386;2023-05-08T08:57:26;94790.34;;;21.33;50.62
18790;BME280;9523;42.650;23.386;2023-05-08T08:59:54;94783.97;;;21.22;50.74
18790;BME280;9523;42.650;23.386;2023-05-08T09:02:24;94789.25;;;21.18;51.25
18790;BME280;9523;42.650;23.386;2023-05-08T09:04:52;94779.91;;;21.12;50.89
18790;BME280;9523;42.650;23.386;2023-05-08T09:07:19;94781.56;;;21.17;51.56
18790;BME280;9523;42.650;23.386;2023-05-08T09:09:46;94779.81;;;21.24;51.76
18790;BME280;9523;42.650;23.386;2023-05-08T09:12:13;94782.00;;;20.87;52.53
18790;BME280;9523;42.650;23.386;2023-05-08T09:14:40;94770.97;;;20.57;53.83
18790;BME280;9523;42.650;23.386;2023-05-08T09:17:08;94764.91;;;20.60;54.03
18790;BME280;9523;42.650;23.386;2023-05-08T09:19:37;94768.31;;;20.42;55.06
18790;BME280;9523;42.650;23.386;2023-05-08T09:22:03;94763.22;;;20.25;57.01
18790;BME280;9523;42.650;23.386;2023-05-08T09:24:55;94754.19;;;20.29;56.30
18790;BME280;9523;42.650;23.386;2023-05-08T09:27:23;94762.69;;;20.03;56.68
18790;BME280;9523;42.650;23.386;2023-05-08T09:30:01;94751.91;;;20.15;55.10
18790;BME280;9523;42.650;23.386;2023-05-08T09:32:29;94748.44;;;20.15;56.99
18790;BME280;9523;42.650;23.386;2023-05-08T09:34:58;94735.19;;;20.06;58.66
18790;BME280;9523;42.650;23.386;2023-05-08T09:37:25;94736.53;;;20.28;59.19
18790;BME280;9523;42.650;23.386;2023-05-08T09:39:53;94733.97;;;20.47;58.84
18790;BME280;9523;42.650;23.386;2023-05-08T09:42:20;94731.44;;;20.70;56.93
18790;BME280;9523;42.650;23.386;2023-05-08T09:44:49;94741.75;;;21.03;56.90
18790;BME280;9523;42.650;23.386;2023-05-08T09:47:18;94740.19;;;21.18;57.16
18790;BME280;9523;42.650;23.386;2023-05-08T09:49:58;94740.19;;;21.18;56.45
18790;BME280;9523;42.650;23.386;2023-05-08T09:52:25;94761.16;;;21.31;56.69
18790;BME280;9523;42.650;23.386;2023-05-08T09:54:56;94764.34;;;21.18;54.54
18790;BME280;9523;42.650;23.386;2023-05-08T09:57:24;94769.47;;;21.26;53.66
18790;BME280;9523;42.650;23.386;2023-05-08T09:59:59;94756.53;;;21.47;53.73
18790;BME280;9523;42.650;23.386;2023-05-08T10:02:27;94756.09;;;21.84;54.07
18790;BME280;9523;42.650;23.386;2023-05-08T10:04:54;94763.34;;;22.44;52.65
18790;BME280;9523;42.650;23.386;2023-05-08T10:07:33;94753.97;;;22.80;51.85
18790;BME280;9523;42.650;23.386;2023-05-08T10:10:02;94748.50;;;23.29;50.77
18790;BME280;9523;42.650;23.386;2023-05-08T10:12:30;94751.81;;;23.16;49.54
18790;BME280;9523;42.650;23.386;2023-05-08T10:15:01;94752.66;;;23.23;49.46
18790;BME280;9523;42.650;23.386;2023-05-08T10:17:36;94749.94;;;23.20;48.28
18790;BME280;9523;42.650;23.386;2023-05-08T10:20:06;94751.78;;;22.89;48.41
18790;BME280;9523;42.650;23.386;2023-05-08T10:22:36;94747.47;;;23.08;47.47
18790;BME280;9523;42.650;23.386;2023-05-08T10:25:09;94742.22;;;22.92;48.29
18790;BME280;9523;42.650;23.386;2023-05-08T10:27:44;94742.28;;;22.96;48.49
18790;BME280;9523;42.650;23.386;2023-05-08T10:30:16;94735.94;;;22.81;48.32
18790;BME280;9523;42.650;23.386;2023-05-08T10:32:46;94735.50;;;22.56;48.59
18790;BME280;9523;42.650;23.386;2023-05-08T10:35:16;94719.06;;;22.84;47.93
18790;BME280;9523;42.650;23.386;2023-05-08T10:37:46;94725.38;;;22.95;48.80
18790;BME280;9523;42.650;23.386;2023-05-08T10:40:14;94729.34;;;23.05;48.57
18790;BME280;9523;42.650;23.386;2023-05-08T10:42:41;94726.09;;;23.22;47.68
18790;BME280;9523;42.650;23.386;2023-05-08T10:45:09;94727.03;;;23.63;47.84
18790;BME280;9523;42.650;23.386;2023-05-08T10:47:50;94720.38;;;24.20;46.20
18790;BME280;9523;42.650;23.386;2023-05-08T10:50:27;94720.09;;;24.79;45.41
18790;BME280;9523;42.650;23.386;2023-05-08T10:53:06;94710.28;;;25.12;44.06
18790;BME280;9523;42.650;23.386;2023-05-08T10:55:35;94712.00;;;25.48;43.37
18790;BME280;9523;42.650;23.386;2023-05-08T10:58:04;94695.19;;;25.87;42.68
18790;BME280;9523;42.650;23.386;2023-05-08T11:00:33;94707.94;;;25.90;42.23
18790;BME280;9523;42.650;23.386;2023-05-08T11:03:23;94708.72;;;25.90;41.93
18790;BME280;9523;42.650;23.386;2023-05-08T11:05:52;94706.09;;;26.29;42.91
18790;BME280;9523;42.650;23.386;2023-05-08T11:08:22;94700.69;;;26.64;42.90
18790;BME280;9523;42.650;23.386;2023-05-08T11:11:03;94701.47;;;26.47;42.35
18790;BME280;9523;42.650;23.386;2023-05-08T11:13:32;94692.88;;;27.30;40.23
18790;BME280;9523;42.650;23.386;2023-05-08T11:16:00;94692.59;;;27.97;37.55
18790;BME280;9523;42.650;23.386;2023-05-08T11:18:28;94690.31;;;27.89;37.07
18790;BME280;9523;42.650;23.386;2023-05-08T11:20:57;94685.84;;;27.43;38.28
18790;BME280;9523;42.650;23.386;2023-05-08T11:23:24;94684.00;;;27.26;39.79
18790;BME280;9523;42.650;23.386;2023-05-08T11:25:59;94675.34;;;27.60;39.59
18790;BME280;9523;42.650;23.386;2023-05-08T11:28:27;94675.72;;;27.65;39.53
18790;BME280;9523;42.650;23.386;2023-05-08T11:30:54;94675.13;;;28.02;38.27
18790;BME280;9523;42.650;23.386;2023-05-08T11:33:21;94666.44;;;27.59;37.91
18790;BME280;9523;42.650;23.386;2023-05-08T11:35:54;94664.31;;;27.95;37.36
18790;BME280;9523;42.650;23.386;2023-05-08T11:38:30;94660.34;;;28.69;35.21
18790;BME280;9523;42.650;23.386;2023-05-08T11:41:02;94652.91;;;29.14;34.52
18790;BME280;9523;42.650;23.386;2023-05-08T11:44:02;94654.03;;;29.50;33.90
18790;BME280;9523;42.650;23.386;2023-05-08T11:46:42;94633.78;;;29.85;34.64
18790;BME280;9523;42.650;23.386;2023-05-08T11:49:13;94639.94;;;29.93;34.92
18790;BME280;9523;42.650;23.386;2023-05-08T11:51:44;94633.06;;;31.04;33.40
18790;BME280;9523;42.650;23.386;2023-05-08T11:54:13;94629.94;;;30.83;33.39
18790;BME280;9523;42.650;23.386;2023-05-08T11:56:40;94624.53;;;31.02;33.46
18790;BME280;9523;42.650;23.386;2023-05-08T11:59:07;94619.97;;;31.75;31.70
18790;BME280;9523;42.650;23.386;2023-05-08T12:01:35;94615.56;;;32.33;30.68
18790;BME280;9523;42.650;23.386;2023-05-08T12:04:04;94601.16;;;32.32;30.97
18790;BME280;9523;42.650;23.386;2023-05-08T12:06:35;94607.84;;;32.60;30.76
18790;BME280;9523;42.650;23.386;2023-05-08T12:09:09;94605.88;;;33.22;29.09
18790;BME280;9523;42.650;23.386;2023-05-08T12:11:36;94608.47;;;32.19;30.62
18790;BME280;9523;42.650;23.386;2023-05-08T12:14:04;94594.56;;;32.13;29.92
18790;BME280;9523;42.650;23.386;2023-05-08T12:16:34;94592.66;;;32.75;28.32
18790;BME280;9523;42.650;23.386;2023-05-08T12:19:02;94598.91;;;32.11;28.07
18790;BME280;9523;42.650;23.386;2023-05-08T12:21:29;94591.47;;;31.59;28.62
18790;BME280;9523;42.650;23.386;2023-05-08T12:23:56;94588.50;;;31.70;29.74
18790;BME280;9523;42.650;23.386;2023-05-08T12:26:25;94588.59;;;31.47;29.87
18790;BME280;9523;42.650;23.386;2023-05-08T12:28:55;94570.53;;;30.54;30.44
18790;BME280;9523;42.650;23.386;2023-05-08T12:31:22;94535.53;;;29.29;31.92
18790;BME280;9523;42.650;23.386;2023-05-08T12:33:51;94579.81;;;28.92;32.51
18790;BME280;9523;42.650;23.386;2023-05-08T12:36:19;94579.03;;;28.03;34.59
18790;BME280;9523;42.650;23.386;2023-05-08T12:38:46;94583.22;;;26.37;35.51
18790;BME280;9523;42.650;23.386;2023-05-08T12:41:14;94576.94;;;25.45;37.32
18790;BME280;9523;42.650;23.386;2023-05-08T12:43:45;94564.44;;;24.94;38.36
18790;BME280;9523;42.650;23.386;2023-05-08T12:46:13;94581.16;;;24.01;40.38
18790;BME280;9523;42.650;23.386;2023-05-08T12:48:42;94582.53;;;24.28;40.95
18790;BME280;9523;42.650;23.386;2023-05-08T12:51:09;94578.28;;;24.24;40.53
18790;BME280;9523;42.650;23.386;2023-05-08T12:53:37;94571.53;;;25.48;38.81
18790;BME280;9523;42.650;23.386;2023-05-08T12:56:05;94566.97;;;26.48;37.36
18790;BME280;9523;42.650;23.386;2023-05-08T12:58:33;94568.94;;;25.94;37.08
18790;BME280;9523;42.650;23.386;2023-05-08T13:01:06;94562.97;;;25.18;38.05
18790;BME280;9523;42.650;23.386;2023-05-08T13:03:35;94561.25;;;24.82;39.96
18790;BME280;9523;42.650;23.386;2023-05-08T13:06:02;94559.63;;;24.59;40.17
18790;BME280;9523;42.650;23.386;2023-05-08T13:08:30;94564.59;;;24.54;40.32
18790;BME280;9523;42.650;23.386;2023-05-08T13:10:57;94562.66;;;24.47;41.18